Time;durP1;ratioP1;P1;durP2;ratioP2;P2;SDS_P1;SDS_P2;PMS_P1;PMS_P2;Temp;Humidity;BMP_temperature;BMP_pressure;BME280_temperature;BME280_humidity;BME280_pressure;Samples;Min_cycle;Max_cycle;Signal;HPM_P1;HPM_P2
2023/09/09 00:01:42;;;;;;;27.60;25.25;;;18.30;99.90;;;;;;6241254;23;20026;-84
2023/09/09 00:04:08;;;;;;;28.58;25.88;;;18.20;99.90;;;;;;6242466;22;20023;-83
2023/09/09 00:06:40;;;;;;;24.40;22.30;;;18.20;99.90;;;;;;6241596;23;20020;-84
2023/09/09 00:09:05;;;;;;;28.40;25.95;;;18.20;99.90;;;;;;6266424;22;20092;-83
2023/09/09 00:11:32;;;;;;;32.38;29.98;;;18.20;99.90;;;;;;6240982;23;20343;-83
2023/09/09 00:13:57;;;;;;;29.95;27.35;;;18.20;99.90;;;;;;6241459;23;20390;-83
2023/09/09 00:16:23;;;;;;;27.70;25.48;;;18.10;99.90;;;;;;6240880;23;20012;-83
2023/09/09 00:18:49;;;;;;;26.13;24.00;;;18.10;99.90;;;;;;6240896;23;20027;-83
2023/09/09 00:21:15;;;;;;;29.40;27.23;;;18.10;99.90;;;;;;6241319;23;20019;-83
2023/09/09 00:23:40;;;;;;;30.45;28.10;;;18.00;99.90;;;;;;6215565;23;20109;-83
2023/09/09 00:26:06;;;;;;;27.63;25.35;;;18.00;99.90;;;;;;6240126;23;20466;-83
2023/09/09 00:28:33;;;;;;;25.85;23.35;;;17.70;99.90;;;;;;6215427;23;20614;-83
2023/09/09 00:30:58;;;;;;;27.90;25.88;;;18.00;99.90;;;;;;6240578;23;20016;-83
2023/09/09 00:33:24;;;;;;;27.00;24.50;;;18.00;99.90;;;;;;6240664;23;20320;-83
2023/09/09 00:35:50;;;;;;;25.17;23.08;;;18.00;99.90;;;;;;6215412;23;20019;-84
2023/09/09 00:38:17;;;;;;;23.75;21.85;;;17.90;99.90;;;;;;6240604;23;20023;-84
2023/09/09 00:41:04;;;;;;;25.10;22.98;;;17.90;99.90;;;;;;6265600;22;20062;-84
2023/09/09 00:43:30;;;;;;;23.90;21.80;;;17.90;99.90;;;;;;6240448;23;20435;-84
2023/09/09 00:45:56;;;;;;;26.83;24.30;;;17.90;99.90;;;;;;6242604;23;20043;-83
2023/09/09 00:48:22;;;;;;;27.17;24.95;;;17.90;99.90;;;;;;6242385;22;20038;-84
2023/09/09 00:50:50;;;;;;;22.90;20.02;;;17.80;99.90;;;;;;6240752;23;20023;-83
2023/09/09 00:53:16;;;;;;;26.60;24.20;;;17.80;99.90;;;;;;6240242;23;20008;-83
2023/09/09 00:55:43;;;;;;;31.55;29.15;;;17.80;99.90;;;;;;6240304;23;20027;-84
2023/09/09 00:58:10;;;;;;;27.90;25.20;;;17.80;99.90;;;;;;6215416;23;20016;-83
2023/09/09 01:00:37;;;;;;;22.42;20.48;;;17.80;99.90;;;;;;6215290;23;20370;-83
2023/09/09 01:03:09;;;;;;;29.98;27.50;;;17.80;99.90;;;;;;6240644;23;20054;-83
2023/09/09 01:05:36;;;;;;;23.70;21.50;;;17.60;99.90;;;;;;6266055;22;20018;-83
2023/09/09 01:08:02;;;;;;;24.98;22.77;;;17.80;99.90;;;;;;6214980;23;20091;-83
2023/09/09 01:10:28;;;;;;;23.55;21.40;;;17.70;99.90;;;;;;6214518;23;20424;-83
2023/09/09 01:12:53;;;;;;;30.42;27.95;;;17.80;99.90;;;;;;6215334;23;20016;-83
2023/09/09 01:15:19;;;;;;;23.08;20.98;;;17.70;99.90;;;;;;6240327;23;20065;-83
2023/09/09 01:17:46;;;;;;;30.35;27.73;;;17.70;99.90;;;;;;6239940;23;20016;-83
2023/09/09 01:20:16;;;;;;;24.50;21.92;;;17.50;99.90;;;;;;6265952;22;20048;-83
2023/09/09 01:22:44;;;;;;;26.75;24.50;;;17.70;99.90;;;;;;6240927;23;20077;-83
2023/09/09 01:25:11;;;;;;;29.30;26.73;;;17.70;99.90;;;;;;6239806;23;20016;-83
2023/09/09 01:27:37;;;;;;;28.13;25.27;;;17.70;99.90;;;;;;6240192;23;20016;-83
2023/09/09 01:30:08;;;;;;;28.55;24.75;;;17.60;99.90;;;;;;6240484;23;20062;-83
2023/09/09 01:32:36;;;;;;;29.05;26.38;;;17.70;99.90;;;;;;6242324;22;20008;-83
2023/09/09 01:35:06;;;;;;;32.28;29.42;;;17.70;99.90;;;;;;6240802;23;20012;-83
2023/09/09 01:37:33;;;;;;;30.00;27.00;;;17.70;99.90;;;;;;6239604;23;20047;-83
2023/09/09 01:40:08;;;;;;;34.28;31.27;;;17.60;99.90;;;;;;6240283;23;20016;-83
2023/09/09 01:42:38;;;;;;;34.80;31.98;;;17.60;99.90;;;;;;6239923;23;20019;-83
2023/09/09 01:45:07;;;;;;;29.10;26.30;;;17.30;99.90;;;;;;6241715;22;20016;-83
2023/09/09 01:47:32;;;;;;;30.85;28.05;;;17.50;99.90;;;;;;6214868;23;20012;-83
2023/09/09 01:49:58;;;;;;;33.85;30.27;;;17.40;99.90;;;;;;6241522;23;20008;-83
2023/09/09 01:52:24;;;;;;;29.40;26.67;;;17.40;99.90;;;;;;6214677;23;20008;-83
2023/09/09 01:54:50;;;;;;;33.30;29.73;;;17.40;99.90;;;;;;6240329;23;20019;-83
2023/09/09 01:57:19;;;;;;;30.65;25.73;;;17.40;99.90;;;;;;6239975;23;20043;-82
2023/09/09 01:59:45;;;;;;;39.22;35.05;;;17.40;99.90;;;;;;6214833;23;20095;-84
2023/09/09 02:02:15;;;;;;;35.88;31.63;;;17.40;99.90;;;;;;6239575;23;20019;-82
2023/09/09 02:04:42;;;;;;;38.70;33.33;;;17.30;99.90;;;;;;6239097;23;20107;-83
2023/09/09 02:07:08;;;;;;;37.15;30.42;;;17.30;99.90;;;;;;6213908;23;20500;-83
2023/09/09 02:09:34;;;;;;;43.85;39.55;;;17.30;99.90;;;;;;6239802;23;20452;-83
2023/09/09 02:12:03;;;;;;;44.50;38.80;;;17.10;99.90;;;;;;6239690;23;20082;-83
2023/09/09 02:14:29;;;;;;;41.25;32.47;;;17.30;99.90;;;;;;6265261;22;20436;-83
2023/09/09 02:16:55;;;;;;;47.90;43.03;;;17.30;99.90;;;;;;6240189;23;20012;-83
2023/09/09 02:19:20;;;;;;;45.05;39.47;;;17.30;99.90;;;;;;6214355;23;20042;-83
2023/09/09 02:21:46;;;;;;;53.50;41.80;;;17.30;99.90;;;;;;6239136;23;20091;-83
2023/09/09 02:24:12;;;;;;;51.78;42.75;;;17.30;99.90;;;;;;6241584;23;20016;-83
2023/09/09 02:26:38;;;;;;;48.25;37.42;;;17.30;99.90;;;;;;6265125;22;20016;-83
2023/09/09 02:29:06;;;;;;;49.78;44.40;;;17.30;99.90;;;;;;6241486;23;20012;-83
2023/09/09 02:31:32;;;;;;;44.60;37.47;;;17.20;99.90;;;;;;6239562;23;20094;-83
2023/09/09 02:33:58;;;;;;;44.78;40.03;;;17.20;99.90;;;;;;6239422;23;20083;-83
2023/09/09 02:36:24;;;;;;;47.45;39.88;;;17.20;99.90;;;;;;6214029;23;20047;-83
2023/09/09 02:38:49;;;;;;;48.20;40.20;;;17.30;99.90;;;;;;6241211;23;20019;-83
2023/09/09 02:41:15;;;;;;;43.90;39.42;;;17.20;99.90;;;;;;6241438;23;20019;-83
2023/09/09 02:43:41;;;;;;;45.67;41.00;;;17.20;99.90;;;;;;6241592;23;20355;-83
2023/09/09 02:46:07;;;;;;;43.58;39.03;;;17.20;99.90;;;;;;6239381;23;20016;-83
2023/09/09 02:48:33;;;;;;;41.45;36.30;;;17.20;99.90;;;;;;6239657;23;20016;-84
2023/09/09 02:50:59;;;;;;;45.55;40.05;;;17.10;99.90;;;;;;6240449;23;20462;-83
2023/09/09 02:53:25;;;;;;;46.53;39.70;;;17.10;99.90;;;;;;6213981;23;20015;-83
2023/09/09 02:55:51;;;;;;;45.53;40.47;;;17.20;99.90;;;;;;6241030;22;20083;-84
2023/09/09 02:58:16;;;;;;;44.90;40.13;;;17.10;99.90;;;;;;6239374;23;20016;-83
2023/09/09 03:00:42;;;;;;;42.95;38.33;;;17.10;99.90;;;;;;6214151;23;20020;-83
2023/09/09 03:03:08;;;;;;;48.53;41.95;;;17.20;99.90;;;;;;6214364;23;20020;-83
2023/09/09 03:05:37;;;;;;;50.20;44.90;;;17.10;99.90;;;;;;6264203;22;20031;-83
2023/09/09 03:08:04;;;;;;;44.65;39.83;;;17.10;99.90;;;;;;6215043;23;20024;-83
2023/09/09 03:10:31;;;;;;;44.03;39.28;;;17.10;99.90;;;;;;6214077;23;20008;-83
2023/09/09 03:12:57;;;;;;;45.88;41.13;;;17.10;99.90;;;;;;6213960;23;20524;-83
2023/09/09 03:15:23;;;;;;;42.28;35.45;;;17.10;99.90;;;;;;6241288;22;20004;-83
2023/09/09 03:17:49;;;;;;;44.53;40.00;;;17.10;99.90;;;;;;6215841;23;20016;-83
2023/09/09 03:20:16;;;;;;;46.67;41.92;;;17.20;99.90;;;;;;6240545;23;20062;-83
2023/09/09 03:22:41;;;;;;;49.10;44.15;;;17.10;99.90;;;;;;6243369;22;20035;-83
2023/09/09 03:25:08;;;;;;;43.75;38.55;;;17.10;99.90;;;;;;6241358;23;20012;-83
2023/09/09 03:27:37;;;;;;;46.95;41.97;;;17.10;99.90;;;;;;6241305;23;20074;-83
2023/09/09 03:30:09;;;;;;;42.20;35.95;;;17.10;99.90;;;;;;6241495;23;20016;-83
2023/09/09 03:32:34;;;;;;;43.15;38.33;;;17.10;99.90;;;;;;6241497;23;20014;-83
2023/09/09 03:35:00;;;;;;;41.33;35.80;;;17.10;99.90;;;;;;6266348;22;20091;-83
2023/09/09 03:37:26;;;;;;;36.78;31.90;;;17.10;99.90;;;;;;6243395;22;20273;-83
2023/09/09 03:39:51;;;;;;;45.67;41.20;;;17.10;99.90;;;;;;6241165;23;20016;-83
2023/09/09 03:42:17;;;;;;;39.38;35.17;;;17.10;99.90;;;;;;6243203;23;20016;-83
2023/09/09 03:44:43;;;;;;;37.13;33.13;;;17.10;99.90;;;;;;6215637;23;20019;-83
2023/09/09 03:47:09;;;;;;;37.75;33.83;;;17.00;99.90;;;;;;6241417;23;20090;-83
2023/09/09 03:49:34;;;;;;;40.17;35.25;;;17.00;99.90;;;;;;6242473;22;20012;-83
2023/09/09 03:52:00;;;;;;;33.70;30.25;;;17.10;99.90;;;;;;6241358;23;20013;-82
2023/09/09 03:54:26;;;;;;;42.13;38.03;;;17.00;99.90;;;;;;6242347;23;20390;-84
2023/09/09 03:56:51;;;;;;;37.85;32.78;;;17.00;99.90;;;;;;6242828;22;20050;-83
2023/09/09 03:59:17;;;;;;;37.97;34.05;;;17.00;99.90;;;;;;6240912;23;20607;-83
2023/09/09 04:01:43;;;;;;;38.08;34.28;;;17.00;99.90;;;;;;6242658;23;20012;-84
2023/09/09 04:04:08;;;;;;;41.60;37.40;;;17.00;99.90;;;;;;6214802;23;20016;-83
2023/09/09 04:06:34;;;;;;;36.83;33.08;;;17.00;99.90;;;;;;6241160;23;20356;-83
2023/09/09 04:09:00;;;;;;;37.70;33.80;;;16.90;99.90;;;;;;6242632;22;20018;-83
2023/09/09 04:11:26;;;;;;;40.70;36.38;;;16.90;99.90;;;;;;6242562;22;20009;-83
2023/09/09 04:13:52;;;;;;;35.58;32.03;;;16.90;99.90;;;;;;6242702;22;20016;-83
2023/09/09 04:16:17;;;;;;;36.42;31.15;;;16.90;99.90;;;;;;6215869;23;20008;-83
2023/09/09 04:18:43;;;;;;;38.83;35.10;;;17.00;99.90;;;;;;6240351;23;20427;-83
2023/09/09 04:21:09;;;;;;;40.55;35.10;;;16.90;99.90;;;;;;6240698;23;20104;-83
2023/09/09 04:23:35;;;;;;;39.78;35.75;;;16.90;99.90;;;;;;6215984;23;20012;-83
2023/09/09 04:26:00;;;;;;;41.13;37.10;;;16.90;99.90;;;;;;6242097;22;20472;-83
2023/09/09 04:28:27;;;;;;;36.53;32.63;;;16.90;99.90;;;;;;6240768;23;20016;-83
2023/09/09 04:30:53;;;;;;;38.85;34.88;;;16.90;99.90;;;;;;6215831;23;20021;-83
2023/09/09 04:33:19;;;;;;;36.28;32.40;;;16.80;99.90;;;;;;6241980;23;20381;-86
2023/09/09 04:35:47;;;;;;;37.78;33.13;;;16.80;99.90;;;;;;6241628;23;20084;-83
2023/09/09 04:38:13;;;;;;;33.00;26.83;;;16.80;99.90;;;;;;6241094;23;20035;-84
2023/09/09 04:40:40;;;;;;;36.90;33.03;;;16.80;99.90;;;;;;6215421;23;20426;-84
2023/09/09 04:43:07;;;;;;;34.95;30.80;;;16.70;99.90;;;;;;6265291;22;20019;-84
2023/09/09 04:45:32;;;;;;;38.05;31.90;;;16.70;99.90;;;;;;6240629;23;20019;-83
2023/09/09 04:47:58;;;;;;;32.75;29.42;;;16.70;99.90;;;;;;6239994;23;20013;-84
2023/09/09 04:50:24;;;;;;;35.97;30.73;;;16.70;99.90;;;;;;6215373;23;20008;-84
2023/09/09 04:52:50;;;;;;;32.15;28.75;;;16.70;99.90;;;;;;6242333;23;20062;-84
2023/09/09 04:55:15;;;;;;;32.30;28.80;;;16.70;99.90;;;;;;6242127;23;20023;-84
2023/09/09 04:57:41;;;;;;;33.17;29.88;;;16.70;99.90;;;;;;6242099;22;20018;-84
2023/09/09 05:00:08;;;;;;;32.75;29.67;;;16.70;99.90;;;;;;6240822;23;20016;-84
2023/09/09 05:02:34;;;;;;;32.92;29.73;;;16.80;99.90;;;;;;6240267;23;20012;-85
2023/09/09 05:05:04;;;;;;;38.70;34.92;;;16.70;99.90;;;;;;6240047;23;20099;-83
2023/09/09 05:07:35;;;;;;;30.08;27.10;;;16.70;99.90;;;;;;6239988;23;20016;-84
2023/09/09 05:10:04;;;;;;;34.00;30.65;;;16.70;99.90;;;;;;6214675;23;20008;-83
2023/09/09 05:12:33;;;;;;;39.65;35.83;;;16.70;99.90;;;;;;6215313;23;20078;-84
2023/09/09 05:15:07;;;;;;;47.17;42.97;;;16.40;99.90;;;;;;6240298;23;20095;-83
2023/09/09 05:17:33;;;;;;;35.55;32.25;;;16.80;99.90;;;;;;6240397;23;20069;-83
2023/09/09 05:19:58;;;;;;;34.83;31.33;;;16.80;99.90;;;;;;6239624;23;20259;-83
2023/09/09 05:22:24;;;;;;;35.35;31.73;;;16.80;99.90;;;;;;6240046;23;20087;-83
2023/09/09 05:24:50;;;;;;;33.10;29.65;;;16.80;99.90;;;;;;6241635;23;20019;-83
2023/09/09 05:27:15;;;;;;;34.70;31.38;;;16.80;99.90;;;;;;6214403;23;20461;-83
2023/09/09 05:29:43;;;;;;;34.53;30.88;;;16.90;99.90;;;;;;6241228;22;20016;-83
2023/09/09 05:32:08;;;;;;;32.47;29.08;;;16.90;99.90;;;;;;6241671;22;20019;-83
2023/09/09 05:34:34;;;;;;;33.30;29.33;;;16.90;99.90;;;;;;6241453;23;20005;-83
2023/09/09 05:37:00;;;;;;;36.47;32.92;;;16.90;99.90;;;;;;6239790;23;20016;-83
2023/09/09 05:39:26;;;;;;;30.70;27.52;;;16.90;99.90;;;;;;6239223;23;20091;-83
2023/09/09 05:41:51;;;;;;;32.72;29.45;;;17.00;99.90;;;;;;6241681;22;20042;-83
2023/09/09 05:44:17;;;;;;;33.53;29.95;;;17.00;99.90;;;;;;6240847;22;20016;-83
2023/09/09 05:46:43;;;;;;;31.75;28.63;;;17.10;99.90;;;;;;6241705;22;20008;-83
2023/09/09 05:49:09;;;;;;;32.92;29.65;;;17.20;99.90;;;;;;6214550;23;20008;-83
2023/09/09 05:51:34;;;;;;;30.88;26.48;;;17.20;99.90;;;;;;6265430;22;20012;-83
2023/09/09 05:54:01;;;;;;;39.35;35.58;;;17.20;99.90;;;;;;6242007;23;20019;-84
2023/09/09 05:56:30;;;;;;;36.25;27.88;;;17.30;99.90;;;;;;6244443;23;20012;-84
2023/09/09 05:58:56;;;;;;;33.90;29.52;;;17.30;99.90;;;;;;6265021;22;20023;-85
2023/09/09 06:01:21;;;;;;;32.33;28.98;;;17.40;99.90;;;;;;6239768;23;20035;-84
2023/09/09 06:03:54;;;;;;;31.60;28.40;;;17.50;99.90;;;;;;6239067;23;20451;-84
2023/09/09 06:06:21;;;;;;;29.87;26.43;;;17.50;99.90;;;;;;6241018;22;20016;-84
2023/09/09 06:08:47;;;;;;;36.03;29.33;;;17.50;99.90;;;;;;6238877;23;20251;-85
2023/09/09 06:11:12;;;;;;;32.05;28.63;;;17.60;99.90;;;;;;6238870;23;20027;-85
2023/09/09 06:13:39;;;;;;;31.25;28.08;;;17.70;99.90;;;;;;6240352;23;20016;-84
2023/09/09 06:16:05;;;;;;;32.55;29.10;;;17.70;99.90;;;;;;6264833;22;20340;-83
2023/09/09 06:18:31;;;;;;;34.42;29.67;;;18.00;99.90;;;;;;6240307;23;20532;-83
2023/09/09 06:20:57;;;;;;;33.15;29.55;;;18.40;99.90;;;;;;6240477;22;20012;-83
2023/09/09 06:23:23;;;;;;;34.65;28.92;;;19.40;99.90;;;;;;6238834;23;20023;-84
2023/09/09 06:25:50;;;;;;;31.88;28.48;;;20.70;99.90;;;;;;6238576;23;20016;-84
2023/09/09 06:28:16;;;;;;;38.05;34.72;;;21.80;99.90;;;;;;6212846;23;20347;-85
2023/09/09 06:30:43;;;;;;;30.85;27.77;;;22.70;99.90;;;;;;6242597;22;20012;-85
2023/09/09 06:33:08;;;;;;;29.48;26.65;;;23.10;99.90;;;;;;6239149;23;20012;-84
2023/09/09 06:35:46;;;;;;;29.33;25.88;;;23.00;99.90;;;;;;6213748;23;20066;-85
2023/09/09 06:38:12;;;;;;;33.70;30.25;;;22.50;99.90;;;;;;6241162;22;20498;-83
2023/09/09 06:40:37;;;;;;;31.60;28.63;;;22.30;99.90;;;;;;6238873;23;20047;-83
2023/09/09 06:43:03;;;;;;;29.98;27.30;;;22.00;99.90;;;;;;6213145;23;20466;-84
2023/09/09 06:45:29;;;;;;;32.70;29.55;;;21.80;99.90;;;;;;6214142;23;20184;-84
2023/09/09 06:47:55;;;;;;;31.55;28.58;;;21.60;99.90;;;;;;6241030;23;20058;-84
2023/09/09 06:50:20;;;;;;;27.83;25.42;;;21.60;99.90;;;;;;6240116;23;20008;-84
2023/09/09 06:52:46;;;;;;;30.88;28.13;;;21.50;99.90;;;;;;6243159;23;20009;-84
2023/09/09 06:55:12;;;;;;;34.72;31.17;;;21.40;99.90;;;;;;6244008;23;20046;-84
2023/09/09 06:57:37;;;;;;;33.58;30.80;;;21.40;99.90;;;;;;6241454;23;20023;-84
2023/09/09 07:00:05;;;;;;;35.30;32.10;;;21.40;99.90;;;;;;6241276;23;20016;-82
2023/09/09 07:02:30;;;;;;;35.05;31.75;;;21.40;99.90;;;;;;6272084;22;20020;-82
2023/09/09 07:04:56;;;;;;;34.30;31.30;;;21.40;99.90;;;;;;6240589;23;20458;-82
2023/09/09 07:07:22;;;;;;;34.50;31.20;;;21.40;99.90;;;;;;6240363;23;20016;-82
2023/09/09 07:09:48;;;;;;;37.45;34.15;;;21.50;99.90;;;;;;6241682;23;20012;-83
2023/09/09 07:12:14;;;;;;;33.70;30.83;;;21.40;99.90;;;;;;6240950;23;20012;-83
2023/09/09 07:14:39;;;;;;;35.45;32.25;;;21.50;99.90;;;;;;6267263;22;20443;-83
2023/09/09 07:17:05;;;;;;;38.95;35.10;;;21.60;99.90;;;;;;6243661;22;20005;-82
2023/09/09 07:19:31;;;;;;;35.90;32.13;;;21.60;99.90;;;;;;6241859;23;20020;-83
2023/09/09 07:21:57;;;;;;;38.72;35.13;;;21.60;99.90;;;;;;6241852;22;20239;-82
2023/09/09 07:24:22;;;;;;;36.78;33.50;;;21.60;99.90;;;;;;6241848;23;20023;-83
2023/09/09 07:26:48;;;;;;;39.35;35.90;;;21.70;99.90;;;;;;6240942;23;20030;-83
2023/09/09 07:29:14;;;;;;;38.25;34.55;;;21.70;99.90;;;;;;6243340;23;20097;-83
2023/09/09 07:31:39;;;;;;;41.67;38.13;;;21.80;99.90;;;;;;6242003;23;20020;-83
2023/09/09 07:34:05;;;;;;;41.45;37.35;;;21.80;99.90;;;;;;6243765;22;20087;-82
2023/09/09 07:36:31;;;;;;;40.13;36.47;;;21.80;99.90;;;;;;6242132;23;20099;-83
2023/09/09 07:38:57;;;;;;;42.47;38.35;;;21.90;99.90;;;;;;6244022;22;20082;-83
2023/09/09 07:41:22;;;;;;;40.53;36.85;;;21.90;99.90;;;;;;6241027;23;20536;-83
2023/09/09 07:43:48;;;;;;;40.40;36.58;;;21.90;99.90;;;;;;6241765;23;20462;-83
2023/09/09 07:46:14;;;;;;;42.45;38.22;;;22.00;99.90;;;;;;6267523;22;20091;-83
2023/09/09 07:48:41;;;;;;;44.33;40.17;;;22.10;99.90;;;;;;6241965;23;20019;-83
2023/09/09 07:51:07;;;;;;;43.83;39.78;;;22.10;99.90;;;;;;6243781;22;20008;-83
2023/09/09 07:53:35;;;;;;;45.28;41.17;;;22.00;99.90;;;;;;6243487;22;20018;-83
2023/09/09 07:56:01;;;;;;;44.78;40.45;;;22.10;99.90;;;;;;6243514;23;20020;-83
2023/09/09 07:58:27;;;;;;;45.95;41.47;;;22.20;99.90;;;;;;6216481;23;20023;-83
2023/09/09 08:01:09;;;;;;;47.25;42.95;;;22.30;99.90;;;;;;6217313;23;20051;-84
2023/09/09 08:03:35;;;;;;;45.67;41.40;;;22.30;99.90;;;;;;6240565;23;20136;-83
2023/09/09 08:06:04;;;;;;;46.03;41.70;;;22.30;99.90;;;;;;6240814;23;20335;-83
2023/09/09 08:08:30;;;;;;;49.00;44.03;;;22.30;99.90;;;;;;6215037;23;20427;-83
2023/09/09 08:10:58;;;;;;;45.55;41.10;;;22.40;99.90;;;;;;6241552;22;20090;-83
2023/09/09 08:13:25;;;;;;;45.22;40.83;;;22.40;99.90;;;;;;6241678;23;20004;-83
2023/09/09 08:15:51;;;;;;;41.85;37.95;;;22.50;99.90;;;;;;6241931;23;20011;-82
2023/09/09 08:18:17;;;;;;;48.50;43.80;;;22.50;99.90;;;;;;6242129;22;20435;-83
2023/09/09 08:20:43;;;;;;;51.40;46.28;;;22.60;99.90;;;;;;6240333;23;20023;-83
2023/09/09 08:23:09;;;;;;;51.25;46.15;;;22.70;99.90;;;;;;6215161;23;20023;-83
2023/09/09 08:25:35;;;;;;;51.60;46.70;;;22.70;99.90;;;;;;6241035;22;20439;-83
2023/09/09 08:28:04;;;;;;;53.45;48.25;;;22.70;99.90;;;;;;6240650;23;20019;-84
2023/09/09 08:30:30;;;;;;;52.88;47.80;;;22.80;99.90;;;;;;6240310;23;20004;-83
2023/09/09 08:32:56;;;;;;;48.92;43.60;;;22.80;99.90;;;;;;6242203;23;20091;-83
2023/09/09 08:35:23;;;;;;;49.40;44.75;;;23.00;99.90;;;;;;6240579;23;20027;-82
2023/09/09 08:37:50;;;;;;;48.28;43.30;;;23.10;99.90;;;;;;6240138;23;20050;-83
2023/09/09 08:40:16;;;;;;;45.40;40.70;;;23.20;99.90;;;;;;6240383;23;20012;-83
2023/09/09 08:43:29;;;;;;;50.50;45.13;;;23.30;99.90;;;;;;6239834;23;20047;-83
2023/09/09 08:46:22;;;;;;;58.63;52.38;;;23.40;99.90;;;;;;6207857;23;20016;-83
2023/09/09 08:48:52;;;;;;;53.80;48.28;;;23.50;99.90;;;;;;6154979;23;20402;-83
2023/09/09 08:51:24;;;;;;;54.63;49.35;;;23.60;99.90;;;;;;6183013;23;20012;-82
2023/09/09 08:53:55;;;;;;;49.58;44.65;;;23.80;99.90;;;;;;6182278;23;20064;-83
2023/09/09 08:56:21;;;;;;;48.58;43.58;;;23.90;99.90;;;;;;6208153;23;20079;-83
2023/09/09 08:58:47;;;;;;;51.22;46.13;;;24.00;99.90;;;;;;6207876;23;20016;-83
2023/09/09 09:01:15;;;;;;;51.83;46.83;;;24.10;99.90;;;;;;6207739;23;20013;-83
2023/09/09 09:03:42;;;;;;;55.88;50.67;;;24.20;99.90;;;;;;6182493;23;20092;-83
2023/09/09 09:06:09;;;;;;;53.08;48.20;;;24.60;99.90;;;;;;6207828;23;20024;-83
2023/09/09 09:08:35;;;;;;;62.10;56.08;;;25.50;99.90;;;;;;6207478;23;20119;-83
2023/09/09 09:11:03;;;;;;;60.70;55.38;;;26.50;99.90;;;;;;6208188;23;20036;-83
2023/09/09 09:13:35;;;;;;;58.90;53.35;;;27.30;99.90;;;;;;6181973;23;20013;-84
2023/09/09 09:16:01;;;;;;;56.85;51.65;;;28.00;99.90;;;;;;6215234;23;20091;-83
2023/09/09 09:18:27;;;;;;;59.28;54.28;;;28.40;99.90;;;;;;6265528;22;20051;-83
2023/09/09 09:21:03;;;;;;;53.83;49.05;;;28.70;99.90;;;;;;6241925;22;20035;-83
2023/09/09 09:23:30;;;;;;;49.42;45.08;;;29.10;99.90;;;;;;6214806;23;20024;-84
2023/09/09 09:25:55;;;;;;;63.70;57.70;;;29.20;99.90;;;;;;6239958;23;20069;-83
2023/09/09 09:28:27;;;;;;;56.83;51.65;;;28.80;99.90;;;;;;6239872;23;20023;-84
2023/09/09 09:30:52;;;;;;;49.10;44.65;;;28.20;99.90;;;;;;6241408;22;20079;-83
2023/09/09 09:33:24;;;;;;;48.47;44.28;;;27.60;99.90;;;;;;6239662;23;20097;-83
2023/09/09 09:36:05;;;;;;;52.75;47.90;;;27.20;99.90;;;;;;6239716;23;20023;-83
2023/09/09 09:38:30;;;;;;;49.53;45.10;;;27.00;99.90;;;;;;6239632;23;20019;-84
2023/09/09 09:41:05;;;;;;;53.22;48.22;;;26.80;99.90;;;;;;6239627;23;20008;-83
2023/09/09 09:43:37;;;;;;;48.28;43.65;;;26.70;99.90;;;;;;6241576;22;20074;-83
2023/09/09 09:46:17;;;;;;;53.05;47.95;;;26.60;99.90;;;;;;6264931;22;20016;-83
2023/09/09 09:48:43;;;;;;;48.10;43.70;;;26.50;99.90;;;;;;6241119;22;20031;-83
2023/09/09 09:51:09;;;;;;;55.00;50.28;;;26.50;99.90;;;;;;6240693;22;20012;-83
2023/09/09 09:53:49;;;;;;;51.78;47.05;;;26.40;99.90;;;;;;6239655;23;20012;-83
2023/09/09 09:56:16;;;;;;;55.03;50.05;;;26.30;99.90;;;;;;6241983;23;20080;-83
2023/09/09 09:58:46;;;;;;;53.85;48.97;;;26.20;99.90;;;;;;6239705;23;20020;-83
2023/09/09 10:01:12;;;;;;;45.60;41.97;;;26.10;99.90;;;;;;6215070;23;20031;-83
2023/09/09 10:03:51;;;;;;;45.45;41.63;;;26.20;99.90;;;;;;6242204;22;20008;-82
2023/09/09 10:06:23;;;;;;;54.72;50.25;;;26.30;99.90;;;;;;6239021;23;20100;-83
2023/09/09 10:09:06;;;;;;;54.08;48.92;;;26.40;99.90;;;;;;6240912;22;20016;-83
2023/09/09 10:11:34;;;;;;;;;;;26.30;99.90;;;;;;6214504;23;20027;-83
2023/09/09 10:14:14;;;;;;;49.97;45.78;;;26.20;99.90;;;;;;6240678;22;19919;-84
2023/09/09 10:16:42;;;;;;;48.40;43.90;;;26.20;99.90;;;;;;6238586;23;20109;-83
2023/09/09 10:19:13;;;;;;;51.88;47.58;;;26.30;99.90;;;;;;6238607;23;20090;-83
2023/09/09 10:21:40;;;;;;;49.50;45.03;;;26.40;99.90;;;;;;6263561;22;20023;-83
2023/09/09 10:24:07;;;;;;;49.95;45.42;;;26.50;99.90;;;;;;6264063;22;20079;-83
2023/09/09 10:26:35;;;;;;;51.72;47.38;;;26.50;99.90;;;;;;6238460;22;20078;-83
2023/09/09 10:29:03;;;;;;;57.72;53.22;;;26.60;99.90;;;;;;6240345;22;20016;-83
2023/09/09 10:31:29;;;;;;;52.95;48.67;;;26.60;99.90;;;;;;6240257;22;20077;-83
2023/09/09 10:33:56;;;;;;;50.80;45.55;;;26.60;99.90;;;;;;6238145;23;20070;-84
2023/09/09 10:36:23;;;;;;;53.75;49.28;;;26.70;99.90;;;;;;6213100;23;20023;-84
2023/09/09 10:38:52;;;;;;;54.72;50.53;;;26.80;99.90;;;;;;6241069;22;20218;-83
2023/09/09 10:41:18;;;;;;;52.72;48.42;;;26.90;99.90;;;;;;6238602;23;20008;-83
2023/09/09 10:43:43;;;;;;;57.63;53.05;;;26.90;99.90;;;;;;6238670;23;20327;-83
2023/09/09 10:46:09;;;;;;;51.00;46.78;;;26.80;99.90;;;;;;6238660;23;20018;-83
2023/09/09 10:48:35;;;;;;;45.67;41.97;;;26.90;99.90;;;;;;6237635;23;20444;-83
2023/09/09 10:51:05;;;;;;;46.05;42.58;;;26.90;99.90;;;;;;6240161;22;20140;-83
2023/09/09 10:53:35;;;;;;;43.47;39.85;;;27.00;99.90;;;;;;6264279;22;20050;-83
2023/09/09 10:56:23;;;;;;;44.60;41.20;;;27.00;99.90;;;;;;6263608;22;20051;-83
2023/09/09 10:58:51;;;;;;;37.30;34.05;;;27.00;99.90;;;;;;6240295;22;20016;-83
2023/09/09 11:01:28;;;;;;;50.17;46.50;;;27.00;99.90;;;;;;6240259;22;20080;-83
2023/09/09 11:03:53;;;;;;;44.30;40.25;;;27.10;99.90;;;;;;6238022;23;20018;-83
2023/09/09 11:06:28;;;;;;;54.75;50.35;;;27.10;99.90;;;;;;6264483;22;20351;-83
2023/09/09 11:08:59;;;;;;;49.40;45.80;;;27.10;99.90;;;;;;6240620;22;20012;-83
2023/09/09 11:11:37;;;;;;;50.70;46.72;;;27.10;99.90;;;;;;6240454;22;20023;-83
2023/09/09 11:14:05;;;;;;;42.10;38.60;;;27.20;99.90;;;;;;6238225;23;20016;-83
2023/09/09 11:16:39;;;;;;;50.10;46.08;;;27.20;99.90;;;;;;6239980;22;20012;-83
2023/09/09 11:19:07;;;;;;;62.85;58.25;;;27.30;99.90;;;;;;6237374;23;20023;-82
2023/09/09 11:21:42;;;;;;;52.28;48.30;;;27.30;99.90;;;;;;6212697;23;20020;-83
2023/09/09 11:24:08;;;;;;;51.67;47.40;;;27.40;99.90;;;;;;6212960;23;20386;-83
2023/09/09 11:26:39;;;;;;;57.90;53.65;;;27.50;99.90;;;;;;6240186;22;20012;-83
2023/09/09 11:29:05;;;;;;;47.17;43.58;;;27.60;99.90;;;;;;6238292;23;20145;-83
2023/09/09 11:31:31;;;;;;;54.50;50.53;;;27.70;99.90;;;;;;6237671;23;20544;-83
2023/09/09 11:34:00;;;;;;;48.45;44.58;;;27.70;99.90;;;;;;6262883;22;20382;-83
2023/09/09 11:36:28;;;;;;;55.63;51.17;;;27.70;99.90;;;;;;6238179;23;20013;-83
2023/09/09 11:38:56;;;;;;;53.92;50.03;;;27.60;99.90;;;;;;6214339;23;20016;-83
2023/09/09 11:41:24;;;;;;;48.83;45.13;;;27.80;99.90;;;;;;6240007;23;20020;-83
2023/09/09 11:44:03;;;;;;;55.67;51.40;;;28.00;99.90;;;;;;6240446;23;20023;-83
2023/09/09 11:46:41;;;;;;;55.38;51.00;;;28.10;99.90;;;;;;6239588;23;20466;-83
2023/09/09 11:49:08;;;;;;;55.38;51.15;;;28.20;99.90;;;;;;6241974;22;20013;-83
2023/09/09 11:51:37;;;;;;;78.13;72.68;;;28.40;99.90;;;;;;6240114;23;20379;-83
2023/09/09 11:54:07;;;;;;;75.68;70.35;;;28.30;99.90;;;;;;6241972;23;20040;-83
2023/09/09 11:56:36;;;;;;;81.63;76.25;;;28.30;99.90;;;;;;6239937;23;20012;-83
2023/09/09 11:59:11;;;;;;;61.60;57.45;;;28.40;99.90;;;;;;6265632;22;20020;-83
2023/09/09 12:01:44;;;;;;;79.63;74.20;;;28.50;99.90;;;;;;6239393;23;20012;-83
2023/09/09 12:04:17;;;;;;;78.53;72.63;;;28.50;99.90;;;;;;6241016;22;20221;-83
2023/09/09 12:06:45;;;;;;;71.38;66.18;;;28.50;99.90;;;;;;6240266;23;20167;-84
2023/09/09 12:09:12;;;;;;;66.78;62.13;;;28.30;99.90;;;;;;6214235;23;20027;-83
2023/09/09 12:11:41;;;;;;;65.63;60.92;;;28.40;99.90;;;;;;6241307;22;20462;-84
2023/09/09 12:14:07;;;;;;;70.68;65.85;;;28.30;99.90;;;;;;6239894;23;20096;-83
2023/09/09 12:16:38;;;;;;;74.53;69.43;;;28.30;99.90;;;;;;6240469;22;20121;-84
2023/09/09 12:19:12;;;;;;;82.15;76.45;;;28.30;99.90;;;;;;6240519;23;20125;-84
2023/09/09 12:21:48;;;;;;;91.35;85.35;;;28.20;99.90;;;;;;6214509;23;20053;-83
2023/09/09 12:24:17;;;;;;;84.53;78.30;;;28.10;99.90;;;;;;6239847;23;20016;-83
2023/09/09 12:26:53;;;;;;;114.88;107.00;;;28.10;99.90;;;;;;6239704;23;20024;-83
2023/09/09 12:29:19;;;;;;;140.35;130.82;;;28.20;99.90;;;;;;6241452;22;20301;-83
2023/09/09 12:31:58;;;;;;;120.00;111.40;;;28.30;99.90;;;;;;6239110;23;20016;-83